Taylorsville, Kentucky
Current Conditions -  °F | °C
As of 5:53 PM on Friday 31 Oct 2014 (Local Time) from KLOU Reporting Station
Overcast Overcast  
Wind Chill: 34°   Ceiling: 5000
Heat Index: 42°   Visibility: 10mi
Dew Point: 33°   Wind: 18mph
Humidity: 70%   Direction: 310°NW
Pressure: 30.03"   Gusts: 25mph
Location:  38.03°N, 85.34°W
Report Text: KLOU 312153Z 31016G22KT 10SM SCT035 OVC050 06/01 A3003 RMK AO2 PK WND 30030/2117 RAB17E31 SLP169 P0001 T00560006
Loading
Personal Weather Stations






























Interactive Weather Map
Tropical Storm Tracking
New forecast layout! Learn more

10-Day Weather Forecast

Advertisements
Track Severe Weather on mobile